sensor_id;sensor_type;location;lat;lon;timestamp;pressure;altitude;pressure_sealevel;temperature;humidity
75681;BME280;64294;49.176;16.626;2024-01-16T00:00:57;97938.50;;;2.11;nan
75681;BME280;64294;49.176;16.626;2024-01-16T00:03:23;97937.91;;;2.24;nan
75681;BME280;64294;49.176;16.626;2024-01-16T00:05:48;97940.59;;;1.94;nan
75681;BME280;64294;49.176;16.626;2024-01-16T00:08:14;97947.69;;;1.83;nan
75681;BME280;64294;49.176;16.626;2024-01-16T00:10:39;97939.34;;;1.95;nan
75681;BME280;64294;49.176;16.626;2024-01-16T00:13:05;97950.84;;;2.10;nan
75681;BME280;64294;49.176;16.626;2024-01-16T00:15:30;97948.41;;;1.95;nan
75681;BME280;64294;49.176;16.626;2024-01-16T00:17:55;97942.06;;;2.00;nan
75681;BME280;64294;49.176;16.626;2024-01-16T00:20:21;97947.88;;;2.38;nan
75681;BME280;64294;49.176;16.626;2024-01-16T00:22:48;97957.06;;;2.57;nan
75681;BME280;64294;49.176;16.626;2024-01-16T00:25:14;97953.63;;;2.04;nan
75681;BME280;64294;49.176;16.626;2024-01-16T00:27:39;97952.13;;;2.45;nan
75681;BME280;64294;49.176;16.626;2024-01-16T00:30:05;97959.81;;;2.63;nan
75681;BME280;64294;49.176;16.626;2024-01-16T00:32:31;97961.44;;;2.06;nan
75681;BME280;64294;49.176;16.626;2024-01-16T00:34:57;97958.91;;;2.49;nan
75681;BME280;64294;49.176;16.626;2024-01-16T00:37:22;97967.75;;;2.78;nan
75681;BME280;64294;49.176;16.626;2024-01-16T00:39:47;97973.25;;;3.13;nan
75681;BME280;64294;49.176;16.626;2024-01-16T00:42:13;97967.09;;;2.96;nan
75681;BME280;64294;49.176;16.626;2024-01-16T00:44:38;97964.66;;;3.17;nan
75681;BME280;64294;49.176;16.626;2024-01-16T00:47:03;97968.69;;;3.40;nan
75681;BME280;64294;49.176;16.626;2024-01-16T00:49:30;97962.03;;;3.24;nan
75681;BME280;64294;49.176;16.626;2024-01-16T00:51:56;97984.50;;;2.96;nan
75681;BME280;64294;49.176;16.626;2024-01-16T00:54:21;97980.25;;;3.20;nan
75681;BME280;64294;49.176;16.626;2024-01-16T00:56:46;97982.97;;;2.95;nan
75681;BME280;64294;49.176;16.626;2024-01-16T00:59:12;97993.09;;;3.47;nan
75681;BME280;64294;49.176;16.626;2024-01-16T01:01:37;97996.41;;;3.21;nan
75681;BME280;64294;49.176;16.626;2024-01-16T01:04:03;97996.38;;;2.61;nan
75681;BME280;64294;49.176;16.626;2024-01-16T01:06:28;97997.09;;;2.67;nan
75681;BME280;64294;49.176;16.626;2024-01-16T01:08:54;98001.03;;;2.78;nan
75681;BME280;64294;49.176;16.626;2024-01-16T01:11:19;97995.63;;;2.20;nan
75681;BME280;64294;49.176;16.626;2024-01-16T01:13:44;97990.97;;;2.74;nan
75681;BME280;64294;49.176;16.626;2024-01-16T01:16:10;97999.16;;;2.61;nan
75681;BME280;64294;49.176;16.626;2024-01-16T01:18:35;98000.22;;;2.88;nan
75681;BME280;64294;49.176;16.626;2024-01-16T01:21:01;98011.78;;;2.57;nan
75681;BME280;64294;49.176;16.626;2024-01-16T01:23:26;97996.00;;;2.40;nan
75681;BME280;64294;49.176;16.626;2024-01-16T01:25:51;97980.72;;;2.23;nan
75681;BME280;64294;49.176;16.626;2024-01-16T01:28:17;98002.88;;;2.69;nan
75681;BME280;64294;49.176;16.626;2024-01-16T01:30:42;98007.72;;;2.93;nan
75681;BME280;64294;49.176;16.626;2024-01-16T01:33:08;98007.97;;;2.95;nan
75681;BME280;64294;49.176;16.626;2024-01-16T01:35:33;98009.75;;;2.57;nan
75681;BME280;64294;49.176;16.626;2024-01-16T01:37:59;98008.19;;;1.63;nan
75681;BME280;64294;49.176;16.626;2024-01-16T01:40:24;98004.47;;;1.43;nan
75681;BME280;64294;49.176;16.626;2024-01-16T01:42:50;98008.75;;;1.56;nan
75681;BME280;64294;49.176;16.626;2024-01-16T01:45:15;98010.97;;;1.63;nan
75681;BME280;64294;49.176;16.626;2024-01-16T01:47:41;98007.50;;;1.40;nan
75681;BME280;64294;49.176;16.626;2024-01-16T01:50:10;98013.53;;;1.44;nan
75681;BME280;64294;49.176;16.626;2024-01-16T01:52:40;98011.78;;;1.41;nan
75681;BME280;64294;49.176;16.626;2024-01-16T01:55:10;98022.34;;;1.54;nan
75681;BME280;64294;49.176;16.626;2024-01-16T01:57:36;98027.94;;;1.31;nan
75681;BME280;64294;49.176;16.626;2024-01-16T02:00:02;98030.19;;;1.33;nan
75681;BME280;64294;49.176;16.626;2024-01-16T02:02:28;98028.13;;;1.56;nan
75681;BME280;64294;49.176;16.626;2024-01-16T02:04:54;98025.84;;;1.60;nan
75681;BME280;64294;49.176;16.626;2024-01-16T02:07:20;98018.25;;;1.66;nan
75681;BME280;64294;49.176;16.626;2024-01-16T02:09:46;98030.59;;;1.65;nan
75681;BME280;64294;49.176;16.626;2024-01-16T02:12:15;98027.00;;;1.92;nan
75681;BME280;64294;49.176;16.626;2024-01-16T02:14:40;98036.28;;;2.00;nan
75681;BME280;64294;49.176;16.626;2024-01-16T02:17:06;98047.59;;;2.02;nan
75681;BME280;64294;49.176;16.626;2024-01-16T02:19:31;98046.09;;;2.07;nan
75681;BME280;64294;49.176;16.626;2024-01-16T02:21:59;98041.63;;;1.87;nan
75681;BME280;64294;49.176;16.626;2024-01-16T02:24:29;98052.91;;;2.00;nan
75681;BME280;64294;49.176;16.626;2024-01-16T02:26:54;98054.06;;;2.22;nan
75681;BME280;64294;49.176;16.626;2024-01-16T02:29:19;98052.97;;;1.89;nan
75681;BME280;64294;49.176;16.626;2024-01-16T02:31:45;98056.97;;;1.94;nan
75681;BME280;64294;49.176;16.626;2024-01-16T02:34:10;98059.25;;;1.90;nan
75681;BME280;64294;49.176;16.626;2024-01-16T02:36:36;98058.22;;;1.93;nan
75681;BME280;64294;49.176;16.626;2024-01-16T02:39:04;98056.47;;;1.90;nan
75681;BME280;64294;49.176;16.626;2024-01-16T02:41:31;98058.53;;;1.78;nan
75681;BME280;64294;49.176;16.626;2024-01-16T02:43:57;98064.31;;;1.74;nan
75681;BME280;64294;49.176;16.626;2024-01-16T02:46:22;98078.19;;;1.69;nan
75681;BME280;64294;49.176;16.626;2024-01-16T02:48:47;98082.19;;;1.79;nan
75681;BME280;64294;49.176;16.626;2024-01-16T02:51:14;98071.59;;;1.83;nan
75681;BME280;64294;49.176;16.626;2024-01-16T02:53:40;98072.13;;;1.76;nan
75681;BME280;64294;49.176;16.626;2024-01-16T02:56:07;98068.63;;;1.70;nan
75681;BME280;64294;49.176;16.626;2024-01-16T02:58:33;98072.59;;;1.91;nan
75681;BME280;64294;49.176;16.626;2024-01-16T03:00:58;98069.06;;;1.91;nan
75681;BME280;64294;49.176;16.626;2024-01-16T03:03:24;98079.41;;;1.85;nan
75681;BME280;64294;49.176;16.626;2024-01-16T03:05:52;98072.59;;;1.91;nan
75681;BME280;64294;49.176;16.626;2024-01-16T03:08:18;98075.41;;;1.74;nan
75681;BME280;64294;49.176;16.626;2024-01-16T03:10:43;98086.47;;;1.80;nan
75681;BME280;64294;49.176;16.626;2024-01-16T03:13:09;98079.59;;;2.03;nan
75681;BME280;64294;49.176;16.626;2024-01-16T03:15:34;98093.78;;;1.72;nan
75681;BME280;64294;49.176;16.626;2024-01-16T03:18:00;98086.22;;;1.78;nan
75681;BME280;64294;49.176;16.626;2024-01-16T03:20:26;98102.81;;;1.95;nan
75681;BME280;64294;49.176;16.626;2024-01-16T03:22:52;98105.91;;;1.69;nan
75681;BME280;64294;49.176;16.626;2024-01-16T03:25:18;98091.00;;;1.83;nan
75681;BME280;64294;49.176;16.626;2024-01-16T03:27:46;98112.09;;;2.03;nan
75681;BME280;64294;49.176;16.626;2024-01-16T03:30:12;98116.13;;;2.02;nan
75681;BME280;64294;49.176;16.626;2024-01-16T03:32:37;98108.16;;;1.70;nan
75681;BME280;64294;49.176;16.626;2024-01-16T03:35:04;98113.34;;;2.07;nan
75681;BME280;64294;49.176;16.626;2024-01-16T03:37:30;98108.28;;;2.17;nan
75681;BME280;64294;49.176;16.626;2024-01-16T03:39:55;98128.78;;;1.86;nan
75681;BME280;64294;49.176;16.626;2024-01-16T03:42:22;98138.53;;;2.09;nan
75681;BME280;64294;49.176;16.626;2024-01-16T03:44:48;98146.84;;;2.09;nan
75681;BME280;64294;49.176;16.626;2024-01-16T03:47:13;98148.19;;;1.64;nan
75681;BME280;64294;49.176;16.626;2024-01-16T03:49:39;98145.09;;;2.06;nan
75681;BME280;64294;49.176;16.626;2024-01-16T03:52:04;98154.69;;;1.94;nan
75681;BME280;64294;49.176;16.626;2024-01-16T03:54:30;98150.44;;;2.62;nan
75681;BME280;64294;49.176;16.626;2024-01-16T03:56:55;98160.03;;;2.61;nan
75681;BME280;64294;49.176;16.626;2024-01-16T03:59:21;98155.44;;;2.69;nan
75681;BME280;64294;49.176;16.626;2024-01-16T04:01:46;98156.75;;;2.63;nan
75681;BME280;64294;49.176;16.626;2024-01-16T04:04:15;98157.50;;;2.58;nan
75681;BME280;64294;49.176;16.626;2024-01-16T04:06:41;98159.84;;;2.95;nan
75681;BME280;64294;49.176;16.626;2024-01-16T04:09:07;98158.19;;;2.75;nan
75681;BME280;64294;49.176;16.626;2024-01-16T04:11:34;98169.00;;;2.79;nan
75681;BME280;64294;49.176;16.626;2024-01-16T04:14:00;98177.97;;;2.49;nan
75681;BME280;64294;49.176;16.626;2024-01-16T04:16:25;98179.50;;;2.97;nan
75681;BME280;64294;49.176;16.626;2024-01-16T04:18:52;98167.31;;;2.70;nan
75681;BME280;64294;49.176;16.626;2024-01-16T04:21:17;98193.22;;;1.14;nan
75681;BME280;64294;49.176;16.626;2024-01-16T04:23:43;98185.31;;;-0.23;nan
75681;BME280;64294;49.176;16.626;2024-01-16T04:26:08;98197.31;;;0.11;nan
75681;BME280;64294;49.176;16.626;2024-01-16T04:28:34;98200.44;;;-0.13;nan
75681;BME280;64294;49.176;16.626;2024-01-16T04:31:03;98194.91;;;-0.13;nan
75681;BME280;64294;49.176;16.626;2024-01-16T04:33:28;98195.56;;;0.08;nan
75681;BME280;64294;49.176;16.626;2024-01-16T04:35:55;98204.78;;;-0.01;nan
75681;BME280;64294;49.176;16.626;2024-01-16T04:38:21;98208.84;;;0.52;nan
75681;BME280;64294;49.176;16.626;2024-01-16T04:40:46;98211.56;;;1.06;nan
75681;BME280;64294;49.176;16.626;2024-01-16T04:43:12;98200.47;;;0.35;nan
75681;BME280;64294;49.176;16.626;2024-01-16T04:45:37;98216.09;;;0.44;nan
75681;BME280;64294;49.176;16.626;2024-01-16T04:48:04;98208.03;;;1.00;nan
75681;BME280;64294;49.176;16.626;2024-01-16T04:50:29;98209.81;;;1.25;nan
75681;BME280;64294;49.176;16.626;2024-01-16T04:52:58;98210.06;;;1.27;nan
75681;BME280;64294;49.176;16.626;2024-01-16T04:55:29;98229.72;;;1.29;nan
75681;BME280;64294;49.176;16.626;2024-01-16T04:57:55;98218.34;;;0.99;nan
75681;BME280;64294;49.176;16.626;2024-01-16T05:00:21;98230.25;;;1.44;nan
75681;BME280;64294;49.176;16.626;2024-01-16T05:02:47;98222.72;;;1.50;nan
75681;BME280;64294;49.176;16.626;2024-01-16T05:05:13;98233.03;;;1.56;nan
75681;BME280;64294;49.176;16.626;2024-01-16T05:07:40;98243.88;;;1.76;nan
75681;BME280;64294;49.176;16.626;2024-01-16T05:10:10;98239.34;;;1.90;nan
75681;BME280;64294;49.176;16.626;2024-01-16T05:12:38;98248.63;;;2.15;nan
75681;BME280;64294;49.176;16.626;2024-01-16T05:15:04;98252.66;;;2.13;nan
75681;BME280;64294;49.176;16.626;2024-01-16T05:17:30;98252.91;;;2.27;nan
75681;BME280;64294;49.176;16.626;2024-01-16T05:19:55;98256.94;;;2.31;nan
75681;BME280;64294;49.176;16.626;2024-01-16T05:22:24;98261.75;;;2.14;nan
75681;BME280;64294;49.176;16.626;2024-01-16T05:24:51;98259.19;;;2.38;nan
75681;BME280;64294;49.176;16.626;2024-01-16T05:27:19;98265.94;;;2.54;nan
75681;BME280;64294;49.176;16.626;2024-01-16T05:29:45;98277.81;;;2.49;nan
75681;BME280;64294;49.176;16.626;2024-01-16T05:32:10;98282.28;;;2.80;nan
75681;BME280;64294;49.176;16.626;2024-01-16T05:34:35;98276.53;;;2.61;nan
75681;BME280;64294;49.176;16.626;2024-01-16T05:37:01;98281.53;;;2.80;nan
75681;BME280;64294;49.176;16.626;2024-01-16T05:39:26;98290.69;;;2.41;nan
75681;BME280;64294;49.176;16.626;2024-01-16T05:41:52;98286.41;;;2.40;nan
75681;BME280;64294;49.176;16.626;2024-01-16T05:44:17;98277.88;;;2.27;nan
75681;BME280;64294;49.176;16.626;2024-01-16T05:46:42;98293.72;;;2.49;nan
75681;BME280;64294;49.176;16.626;2024-01-16T05:49:08;98298.63;;;3.00;nan
75681;BME280;64294;49.176;16.626;2024-01-16T05:51:33;98308.78;;;2.76;nan
75681;BME280;64294;49.176;16.626;2024-01-16T05:53:58;98309.00;;;2.89;nan
75681;BME280;64294;49.176;16.626;2024-01-16T05:56:27;98311.75;;;2.94;nan
75681;BME280;64294;49.176;16.626;2024-01-16T05:58:52;98300.47;;;2.70;nan
75681;BME280;64294;49.176;16.626;2024-01-16T06:01:18;98314.38;;;2.53;nan
75681;BME280;64294;49.176;16.626;2024-01-16T06:03:43;98312.84;;;2.41;nan
75681;BME280;64294;49.176;16.626;2024-01-16T06:06:14;98329.50;;;2.35;nan
75681;BME280;64294;49.176;16.626;2024-01-16T06:08:40;98331.53;;;2.46;nan
75681;BME280;64294;49.176;16.626;2024-01-16T06:11:05;98330.53;;;2.16;nan
75681;BME280;64294;49.176;16.626;2024-01-16T06:13:31;98321.97;;;2.13;nan
75681;BME280;64294;49.176;16.626;2024-01-16T06:15:58;98339.09;;;2.06;nan
75681;BME280;64294;49.176;16.626;2024-01-16T06:18:23;98350.16;;;2.01;nan
75681;BME280;64294;49.176;16.626;2024-01-16T06:20:49;98346.66;;;2.23;nan
75681;BME280;64294;49.176;16.626;2024-01-16T06:23:14;98345.16;;;2.44;nan
75681;BME280;64294;49.176;16.626;2024-01-16T06:25:39;98349.19;;;2.43;nan
75681;BME280;64294;49.176;16.626;2024-01-16T06:28:05;98354.44;;;2.02;nan
75681;BME280;64294;49.176;16.626;2024-01-16T06:30:31;98353.44;;;2.22;nan
75681;BME280;64294;49.176;16.626;2024-01-16T06:32:56;98357.72;;;1.89;nan
75681;BME280;64294;49.176;16.626;2024-01-16T06:35:22;98362.22;;;1.75;nan
75681;BME280;64294;49.176;16.626;2024-01-16T06:37:48;98361.28;;;2.06;nan
75681;BME280;64294;49.176;16.626;2024-01-16T06:40:14;98361.47;;;1.69;nan
75681;BME280;64294;49.176;16.626;2024-01-16T06:42:39;98373.06;;;1.79;nan
75681;BME280;64294;49.176;16.626;2024-01-16T06:45:08;98369.72;;;1.52;nan
75681;BME280;64294;49.176;16.626;2024-01-16T06:47:33;98357.94;;;1.69;nan
75681;BME280;64294;49.176;16.626;2024-01-16T06:49:59;98371.75;;;1.58;nan
75681;BME280;64294;49.176;16.626;2024-01-16T06:52:24;98379.34;;;1.68;nan
75681;BME280;64294;49.176;16.626;2024-01-16T06:54:50;98367.75;;;1.70;nan
75681;BME280;64294;49.176;16.626;2024-01-16T06:57:18;98390.91;;;1.67;nan
75681;BME280;64294;49.176;16.626;2024-01-16T06:59:44;98384.09;;;1.62;nan
75681;BME280;64294;49.176;16.626;2024-01-16T07:02:09;98388.66;;;1.76;nan
75681;BME280;64294;49.176;16.626;2024-01-16T07:04:35;98401.81;;;1.98;nan
75681;BME280;64294;49.176;16.626;2024-01-16T07:07:00;98406.34;;;2.01;nan
75681;BME280;64294;49.176;16.626;2024-01-16T07:09:26;98401.84;;;2.37;nan
75681;BME280;64294;49.176;16.626;2024-01-16T07:11:52;98410.59;;;3.83;nan
75681;BME280;64294;49.176;16.626;2024-01-16T07:14:18;98427.63;;;4.81;nan
75681;BME280;64294;49.176;16.626;2024-01-16T07:16:45;98419.84;;;5.71;nan
75681;BME280;64294;49.176;16.626;2024-01-16T07:19:10;98419.97;;;6.54;nan
75681;BME280;64294;49.176;16.626;2024-01-16T07:21:37;98428.53;;;7.47;nan
75681;BME280;64294;49.176;16.626;2024-01-16T07:24:02;98415.84;;;8.06;nan
75681;BME280;64294;49.176;16.626;2024-01-16T07:26:28;98422.91;;;9.17;nan
75681;BME280;64294;49.176;16.626;2024-01-16T07:28:57;98419.41;;;9.53;nan
75681;BME280;64294;49.176;16.626;2024-01-16T07:31:23;98429.00;;;10.01;nan
75681;BME280;64294;49.176;16.626;2024-01-16T07:33:48;98435.63;;;9.75;nan
75681;BME280;64294;49.176;16.626;2024-01-16T07:36:24;98419.84;;;10.67;nan
75681;BME280;64294;49.176;16.626;2024-01-16T07:38:50;98436.34;;;10.71;nan
75681;BME280;64294;49.176;16.626;2024-01-16T07:41:15;98431.88;;;10.98;nan
75681;BME280;64294;49.176;16.626;2024-01-16T07:43:40;98429.72;;;11.75;nan
75681;BME280;64294;49.176;16.626;2024-01-16T07:46:06;98451.72;;;12.24;nan
75681;BME280;64294;49.176;16.626;2024-01-16T07:48:31;98434.84;;;11.46;nan
75681;BME280;64294;49.176;16.626;2024-01-16T07:50:57;98437.31;;;12.12;nan
75681;BME280;64294;49.176;16.626;2024-01-16T07:53:22;98445.59;;;12.03;nan
75681;BME280;64294;49.176;16.626;2024-01-16T07:55:47;98453.19;;;14.00;nan
75681;BME280;64294;49.176;16.626;2024-01-16T07:58:13;98459.50;;;14.96;nan
75681;BME280;64294;49.176;16.626;2024-01-16T08:00:39;98459.25;;;15.11;nan
75681;BME280;64294;49.176;16.626;2024-01-16T08:03:08;98451.28;;;13.25;nan
75681;BME280;64294;49.176;16.626;2024-01-16T08:05:36;98456.22;;;14.46;nan
75681;BME280;64294;49.176;16.626;2024-01-16T08:08:01;98454.91;;;14.47;nan
75681;BME280;64294;49.176;16.626;2024-01-16T08:10:26;98463.00;;;16.47;nan
75681;BME280;64294;49.176;16.626;2024-01-16T08:12:52;98467.97;;;16.37;nan
75681;BME280;64294;49.176;16.626;2024-01-16T08:15:17;98470.31;;;17.10;nan
75681;BME280;64294;49.176;16.626;2024-01-16T08:17:43;98463.47;;;15.66;nan
75681;BME280;64294;49.176;16.626;2024-01-16T08:20:08;98471.50;;;15.80;nan
75681;BME280;64294;49.176;16.626;2024-01-16T08:22:37;98473.75;;;16.78;nan
75681;BME280;64294;49.176;16.626;2024-01-16T08:25:03;98480.78;;;15.34;nan
75681;BME280;64294;49.176;16.626;2024-01-16T08:27:30;98478.22;;;16.81;nan
75681;BME280;64294;49.176;16.626;2024-01-16T08:29:56;98479.56;;;15.64;nan
75681;BME280;64294;49.176;16.626;2024-01-16T08:32:21;98485.69;;;15.99;nan
75681;BME280;64294;49.176;16.626;2024-01-16T08:34:47;98492.16;;;14.36;nan
75681;BME280;64294;49.176;16.626;2024-01-16T08:37:12;98482.41;;;16.80;nan
75681;BME280;64294;49.176;16.626;2024-01-16T08:39:37;98486.88;;;17.54;nan
75681;BME280;64294;49.176;16.626;2024-01-16T08:42:03;98490.19;;;16.02;nan
75681;BME280;64294;49.176;16.626;2024-01-16T08:44:29;98494.81;;;16.55;nan
75681;BME280;64294;49.176;16.626;2024-01-16T08:46:54;98493.28;;;18.29;nan
75681;BME280;64294;49.176;16.626;2024-01-16T08:49:20;98495.44;;;18.19;nan
75681;BME280;64294;49.176;16.626;2024-01-16T08:51:48;98508.41;;;18.10;nan
75681;BME280;64294;49.176;16.626;2024-01-16T08:54:13;98523.38;;;18.65;nan
75681;BME280;64294;49.176;16.626;2024-01-16T08:56:39;98515.56;;;17.90;nan
75681;BME280;64294;49.176;16.626;2024-01-16T08:59:04;98510.06;;;18.46;nan
75681;BME280;64294;49.176;16.626;2024-01-16T09:01:30;98516.66;;;18.93;nan
75681;BME280;64294;49.176;16.626;2024-01-16T09:03:55;98512.06;;;18.88;nan
75681;BME280;64294;49.176;16.626;2024-01-16T09:06:24;98525.38;;;19.19;nan
75681;BME280;64294;49.176;16.626;2024-01-16T09:08:49;98521.59;;;18.93;nan
75681;BME280;64294;49.176;16.626;2024-01-16T09:11:15;98520.63;;;18.34;nan
75681;BME280;64294;49.176;16.626;2024-01-16T09:13:40;98526.44;;;17.72;nan
75681;BME280;64294;49.176;16.626;2024-01-16T09:16:05;98526.59;;;16.54;nan
75681;BME280;64294;49.176;16.626;2024-01-16T09:18:31;98526.94;;;18.32;nan
75681;BME280;64294;49.176;16.626;2024-01-16T09:20:56;98535.44;;;19.90;nan
75681;BME280;64294;49.176;16.626;2024-01-16T09:23:22;98530.59;;;18.23;nan
75681;BME280;64294;49.176;16.626;2024-01-16T09:25:50;98537.75;;;18.45;nan
75681;BME280;64294;49.176;16.626;2024-01-16T09:28:16;98529.47;;;20.09;nan
75681;BME280;64294;49.176;16.626;2024-01-16T09:30:44;98532.88;;;20.94;nan
75681;BME280;64294;49.176;16.626;2024-01-16T09:33:10;98521.44;;;20.94;nan
75681;BME280;64294;49.176;16.626;2024-01-16T09:35:36;98532.69;;;20.52;nan
75681;BME280;64294;49.176;16.626;2024-01-16T09:38:02;98526.38;;;19.82;nan
75681;BME280;64294;49.176;16.626;2024-01-16T09:40:30;98537.53;;;17.68;nan
75681;BME280;64294;49.176;16.626;2024-01-16T09:42:55;98528.97;;;17.37;nan
75681;BME280;64294;49.176;16.626;2024-01-16T09:45:21;98533.31;;;17.28;nan
75681;BME280;64294;49.176;16.626;2024-01-16T09:47:51;98536.63;;;19.05;nan
75681;BME280;64294;49.176;16.626;2024-01-16T09:50:18;98534.94;;;18.57;nan
75681;BME280;64294;49.176;16.626;2024-01-16T09:52:45;98537.56;;;19.54;nan
75681;BME280;64294;49.176;16.626;2024-01-16T09:55:12;98534.44;;;19.50;nan
75681;BME280;64294;49.176;16.626;2024-01-16T09:57:39;98545.19;;;20.59;nan
75681;BME280;64294;49.176;16.626;2024-01-16T10:00:09;98538.28;;;19.43;nan
75681;BME280;64294;49.176;16.626;2024-01-16T10:02:41;98534.47;;;18.61;nan
75681;BME280;64294;49.176;16.626;2024-01-16T10:05:16;98526.91;;;19.55;nan
75681;BME280;64294;49.176;16.626;2024-01-16T10:07:42;98538.94;;;21.25;nan
75681;BME280;64294;49.176;16.626;2024-01-16T10:10:10;98525.75;;;19.25;nan
75681;BME280;64294;49.176;16.626;2024-01-16T10:12:37;98522.56;;;19.77;nan
75681;BME280;64294;49.176;16.626;2024-01-16T10:15:05;98529.72;;;19.31;nan
75681;BME280;64294;49.176;16.626;2024-01-16T10:17:41;98529.56;;;17.66;nan
75681;BME280;64294;49.176;16.626;2024-01-16T10:20:08;98538.97;;;18.21;nan
75681;BME280;64294;49.176;16.626;2024-01-16T10:22:39;98526.38;;;19.35;nan
75681;BME280;64294;49.176;16.626;2024-01-16T10:27:31;98519.03;;;18.09;nan
75681;BME280;64294;49.176;16.626;2024-01-16T10:29:57;98520.72;;;18.57;nan
75681;BME280;64294;49.176;16.626;2024-01-16T10:32:42;98517.09;;;19.34;nan
75681;BME280;64294;49.176;16.626;2024-01-16T10:35:12;98518.59;;;19.35;nan
75681;BME280;64294;49.176;16.626;2024-01-16T10:37:42;98518.75;;;18.81;nan
75681;BME280;64294;49.176;16.626;2024-01-16T10:40:24;98507.41;;;18.38;nan
75681;BME280;64294;49.176;16.626;2024-01-16T10:43:02;98520.59;;;17.39;nan
75681;BME280;64294;49.176;16.626;2024-01-16T10:45:33;98527.59;;;13.35;nan
75681;BME280;64294;49.176;16.626;2024-01-16T10:48:08;98510.88;;;13.54;nan
75681;BME280;64294;49.176;16.626;2024-01-16T10:50:35;98523.69;;;12.10;nan
75681;BME280;64294;49.176;16.626;2024-01-16T10:53:05;98520.56;;;13.19;nan
75681;BME280;64294;49.176;16.626;2024-01-16T10:55:31;98511.38;;;12.38;nan
75681;BME280;64294;49.176;16.626;2024-01-16T10:57:58;98520.00;;;11.23;nan
75681;BME280;64294;49.176;16.626;2024-01-16T11:00:27;98523.31;;;12.06;nan
75681;BME280;64294;49.176;16.626;2024-01-16T11:03:01;98527.25;;;12.18;nan
75681;BME280;64294;49.176;16.626;2024-01-16T11:05:32;98544.16;;;12.03;nan
75681;BME280;64294;49.176;16.626;2024-01-16T11:07:59;98537.00;;;10.95;nan
75681;BME280;64294;49.176;16.626;2024-01-16T11:10:31;98533.41;;;13.37;nan
75681;BME280;64294;49.176;16.626;2024-01-16T11:13:00;98540.63;;;11.57;nan
75681;BME280;64294;49.176;16.626;2024-01-16T11:15:29;98545.47;;;10.15;nan
75681;BME280;64294;49.176;16.626;2024-01-16T11:17:59;98537.41;;;9.83;nan
75681;BME280;64294;49.176;16.626;2024-01-16T11:20:26;98528.88;;;9.39;nan
75681;BME280;64294;49.176;16.626;2024-01-16T11:22:53;98541.59;;;9.40;nan
75681;BME280;64294;49.176;16.626;2024-01-16T11:25:31;98530.88;;;11.35;nan
75681;BME280;64294;49.176;16.626;2024-01-16T11:28:08;98549.31;;;10.77;nan
75681;BME280;64294;49.176;16.626;2024-01-16T11:30:35;98542.75;;;10.23;nan
75681;BME280;64294;49.176;16.626;2024-01-16T11:33:01;98545.22;;;10.34;nan
75681;BME280;64294;49.176;16.626;2024-01-16T11:35:37;98547.72;;;9.60;nan
75681;BME280;64294;49.176;16.626;2024-01-16T11:38:09;98556.63;;;9.09;nan
75681;BME280;64294;49.176;16.626;2024-01-16T11:40:35;98547.34;;;9.35;nan
75681;BME280;64294;49.176;16.626;2024-01-16T11:45:57;98539.91;;;8.48;nan
75681;BME280;64294;49.176;16.626;2024-01-16T11:48:24;98554.47;;;8.47;nan
75681;BME280;64294;49.176;16.626;2024-01-16T11:50:50;98546.16;;;8.28;nan
75681;BME280;64294;49.176;16.626;2024-01-16T11:53:37;98548.00;;;8.12;nan
75681;BME280;64294;49.176;16.626;2024-01-16T11:56:26;98544.16;;;7.63;nan
75681;BME280;64294;49.176;16.626;2024-01-16T12:01:32;98548.97;;;7.17;nan
75681;BME280;64294;49.176;16.626;2024-01-16T12:04:04;98546.03;;;6.77;nan
75681;BME280;64294;49.176;16.626;2024-01-16T12:06:31;98543.59;;;6.68;nan
75681;BME280;64294;49.176;16.626;2024-01-16T12:09:16;98560.13;;;6.28;nan
75681;BME280;64294;49.176;16.626;2024-01-16T12:11:43;98562.88;;;6.53;nan
75681;BME280;64294;49.176;16.626;2024-01-16T12:14:11;98552.47;;;6.72;nan
75681;BME280;64294;49.176;16.626;2024-01-16T12:16:37;98563.41;;;6.51;nan
75681;BME280;64294;49.176;16.626;2024-01-16T12:21:33;98557.72;;;6.76;nan
75681;BME280;64294;49.176;16.626;2024-01-16T12:23:59;98549.72;;;6.85;nan
75681;BME280;64294;49.176;16.626;2024-01-16T12:26:25;98544.94;;;7.31;nan
75681;BME280;64294;49.176;16.626;2024-01-16T12:28:53;98548.19;;;7.48;nan
75681;BME280;64294;49.176;16.626;2024-01-16T12:31:19;98542.84;;;7.90;nan
75681;BME280;64294;49.176;16.626;2024-01-16T12:33:45;98555.31;;;7.49;nan
75681;BME280;64294;49.176;16.626;2024-01-16T12:36:10;98560.84;;;7.04;nan
75681;BME280;64294;49.176;16.626;2024-01-16T12:38:36;98556.34;;;7.01;nan
75681;BME280;64294;49.176;16.626;2024-01-16T12:41:09;98555.41;;;6.61;nan
75681;BME280;64294;49.176;16.626;2024-01-16T12:43:37;98563.44;;;6.27;nan
75681;BME280;64294;49.176;16.626;2024-01-16T12:46:02;98554.25;;;6.88;nan
75681;BME280;64294;49.176;16.626;2024-01-16T12:48:29;98553.53;;;7.01;nan
75681;BME280;64294;49.176;16.626;2024-01-16T12:51:03;98558.41;;;6.63;nan
75681;BME280;64294;49.176;16.626;2024-01-16T12:53:29;98555.63;;;6.63;nan
75681;BME280;64294;49.176;16.626;2024-01-16T12:55:59;98561.94;;;6.82;nan
75681;BME280;64294;49.176;16.626;2024-01-16T12:58:25;98553.19;;;6.91;nan
75681;BME280;64294;49.176;16.626;2024-01-16T13:00:53;98547.81;;;6.93;nan
75681;BME280;64294;49.176;16.626;2024-01-16T13:03:20;98551.75;;;6.66;nan
75681;BME280;64294;49.176;16.626;2024-01-16T13:05:57;98552.16;;;6.38;nan
75681;BME280;64294;49.176;16.626;2024-01-16T13:08:23;98557.56;;;6.87;nan
75681;BME280;64294;49.176;16.626;2024-01-16T13:11:07;98555.28;;;6.10;nan
75681;BME280;64294;49.176;16.626;2024-01-16T13:13:34;98558.38;;;6.06;nan
75681;BME280;64294;49.176;16.626;2024-01-16T13:16:00;98565.88;;;6.17;nan
75681;BME280;64294;49.176;16.626;2024-01-16T13:18:28;98565.75;;;5.80;nan
75681;BME280;64294;49.176;16.626;2024-01-16T13:20:55;98562.47;;;6.24;nan
75681;BME280;64294;49.176;16.626;2024-01-16T13:23:23;98568.03;;;6.24;nan
75681;BME280;64294;49.176;16.626;2024-01-16T13:25:51;98564.34;;;5.92;nan